createdAt,value
2023-04-25T00:00:02.288Z,1001.25
2023-04-25T00:01:02.311Z,1001.23
2023-04-25T00:02:03.446Z,1001.25
2023-04-25T00:03:03.049Z,1001.26
2023-04-25T00:04:03.156Z,1001.21
2023-04-25T00:05:03.509Z,1001.23
2023-04-25T00:06:02.944Z,1001.24
2023-04-25T00:07:02.966Z,1001.22
2023-04-25T00:08:02.979Z,1001.22
2023-04-25T00:09:02.752Z,1001.24
2023-04-25T00:10:02.590Z,1001.23
2023-04-25T00:11:02.668Z,1001.25
2023-04-25T00:12:02.815Z,1001.20
2023-04-25T00:13:02.329Z,1001.25
2023-04-25T00:14:02.213Z,1001.23
2023-04-25T00:15:02.621Z,1001.25
2023-04-25T00:16:02.670Z,1001.24
2023-04-25T00:17:02.761Z,1001.24
2023-04-25T00:18:02.953Z,1001.27
2023-04-25T00:19:02.821Z,1001.24
2023-04-25T00:20:02.605Z,1001.26
2023-04-25T00:21:02.520Z,1001.25
2023-04-25T00:22:02.706Z,1001.25
2023-04-25T00:23:02.497Z,1001.27
2023-04-25T00:24:02.286Z,1001.30
2023-04-25T00:25:02.115Z,1001.28
2023-04-25T00:26:02.425Z,1001.26
2023-04-25T00:27:02.469Z,1001.25
2023-04-25T00:28:02.749Z,1001.27
2023-04-25T00:29:02.380Z,1001.28
2023-04-25T00:30:02.359Z,1001.27
2023-04-25T00:31:02.954Z,1001.28
2023-04-25T00:32:02.923Z,1001.29
2023-04-25T00:33:02.551Z,1001.30
2023-04-25T00:34:02.581Z,1001.31
2023-04-25T00:35:02.593Z,1001.32
2023-04-25T00:36:03.046Z,1001.32
2023-04-25T00:37:03.066Z,1001.34
2023-04-25T00:38:03.035Z,1001.32
2023-04-25T00:39:03.115Z,1001.39
2023-04-25T00:40:02.911Z,1001.36
2023-04-25T00:41:02.798Z,1001.37
2023-04-25T00:42:02.829Z,1001.33
2023-04-25T00:43:02.796Z,1001.34
2023-04-25T00:44:02.261Z,1001.34
2023-04-25T00:45:02.626Z,1001.33
2023-04-25T00:46:02.420Z,1001.30
2023-04-25T00:47:03.092Z,1001.28
2023-04-25T00:48:03.211Z,1001.29
2023-04-25T00:49:03.249Z,1001.30
2023-04-25T00:50:03.080Z,1001.30
2023-04-25T00:51:03.444Z,1001.32
2023-04-25T00:52:03.281Z,1001.30
2023-04-25T00:53:03.017Z,1001.27
2023-04-25T00:54:03.417Z,1001.29
2023-04-25T00:55:03.105Z,1001.28
2023-04-25T00:56:03.253Z,1001.29
2023-04-25T00:57:02.302Z,1001.31
2023-04-25T00:58:02.188Z,1001.25
2023-04-25T00:59:02.224Z,1001.26
2023-04-25T01:00:02.048Z,1001.25
2023-04-25T01:01:02.635Z,1001.28
2023-04-25T01:02:02.689Z,1001.32
2023-04-25T01:03:02.447Z,1001.31
2023-04-25T01:04:02.589Z,1001.28
2023-04-25T01:05:02.082Z,1001.28
2023-04-25T01:06:02.575Z,1001.29
2023-04-25T01:07:02.383Z,1001.31
2023-04-25T01:08:02.894Z,1001.32
2023-04-25T01:09:02.827Z,1001.30
2023-04-25T01:10:02.321Z,1001.31
2023-04-25T01:11:02.374Z,1001.28
2023-04-25T01:12:02.891Z,1001.31
2023-04-25T01:13:03.254Z,1001.30
2023-04-25T01:14:03.183Z,1001.32
2023-04-25T01:15:03.002Z,1001.30
2023-04-25T01:16:03.080Z,1001.30
2023-04-25T01:17:03.133Z,1001.32
2023-04-25T01:18:02.969Z,1001.36
2023-04-25T01:19:02.627Z,1001.34
2023-04-25T01:20:02.786Z,1001.34
2023-04-25T01:21:02.529Z,1001.34
2023-04-25T01:22:02.020Z,1001.35
2023-04-25T01:23:01.781Z,1001.34
2023-04-25T01:24:02.244Z,1001.31
2023-04-25T01:25:02.000Z,1001.37
2023-04-25T01:26:02.296Z,1001.34
2023-04-25T01:27:02.532Z,1001.36
2023-04-25T01:28:02.332Z,1001.34
2023-04-25T01:29:02.111Z,1001.34
2023-04-25T01:30:02.008Z,1001.33
2023-04-25T01:31:02.411Z,1001.30
2023-04-25T01:32:03.192Z,1001.34
2023-04-25T01:33:03.266Z,1001.34
2023-04-25T01:34:02.675Z,1001.33
2023-04-25T01:35:02.714Z,1001.38
2023-04-25T01:36:03.195Z,1001.34
2023-04-25T01:37:02.673Z,1001.37
2023-04-25T01:38:02.824Z,1001.37
2023-04-25T01:39:03.138Z,1001.35
2023-04-25T01:40:02.884Z,1001.38
2023-04-25T01:41:03.325Z,1001.38
2023-04-25T01:42:02.906Z,1001.41
2023-04-25T01:43:02.441Z,1001.42
2023-04-25T01:44:02.871Z,1001.42
2023-04-25T01:45:02.837Z,1001.43
2023-04-25T01:46:02.465Z,1001.46
2023-04-25T01:47:02.970Z,1001.47
2023-04-25T01:48:03.209Z,1001.47
2023-04-25T01:49:03.075Z,1001.48
2023-04-25T01:50:03.190Z,1001.47
2023-04-25T01:51:03.299Z,1001.54
2023-04-25T01:52:02.344Z,1001.51
2023-04-25T01:53:02.280Z,1001.55
2023-04-25T01:54:02.174Z,1001.55
2023-04-25T01:55:02.013Z,1001.57
2023-04-25T01:56:01.982Z,1001.58
2023-04-25T01:57:02.704Z,1001.56
2023-04-25T01:58:02.423Z,1001.57
2023-04-25T01:59:02.844Z,1001.58
2023-04-25T02:00:03.025Z,1001.56
2023-04-25T02:01:02.704Z,1001.56
2023-04-25T02:02:02.439Z,1001.60
2023-04-25T02:03:02.041Z,1001.64
2023-04-25T02:04:02.306Z,1001.62
2023-04-25T02:05:02.304Z,1001.63
2023-04-25T02:06:02.331Z,1001.65
2023-04-25T02:07:02.764Z,1001.64
2023-04-25T02:08:02.512Z,1001.66
2023-04-25T02:09:02.895Z,1001.67
2023-04-25T02:10:02.447Z,1001.68
2023-04-25T02:11:02.877Z,1001.66
2023-04-25T02:12:02.300Z,1001.67
2023-04-25T02:13:02.500Z,1001.66
2023-04-25T02:14:01.931Z,1001.65
2023-04-25T02:15:02.432Z,1001.64
2023-04-25T02:16:01.992Z,1001.66
2023-04-25T02:17:02.322Z,1001.68
2023-04-25T02:18:02.184Z,1001.69
2023-04-25T02:19:02.443Z,1001.66
2023-04-25T02:20:02.423Z,1001.69
2023-04-25T02:21:02.621Z,1001.69
2023-04-25T02:22:02.595Z,1001.68
2023-04-25T02:23:02.403Z,1001.67
2023-04-25T02:24:03.048Z,1001.73
2023-04-25T02:25:02.562Z,1001.70
2023-04-25T02:26:02.932Z,1001.71
2023-04-25T02:27:01.967Z,1001.68
2023-04-25T02:28:02.223Z,1001.71
2023-04-25T02:29:02.246Z,1001.68
2023-04-25T02:30:02.235Z,1001.69
2023-04-25T02:31:02.238Z,1001.67
2023-04-25T02:32:02.463Z,1001.66
2023-04-25T02:33:02.266Z,1001.69
2023-04-25T02:34:02.791Z,1001.69
2023-04-25T02:35:02.284Z,1001.69
2023-04-25T02:36:02.587Z,1001.65
2023-04-25T02:37:02.972Z,1001.66
2023-04-25T02:38:03.147Z,1001.68
2023-04-25T02:39:02.536Z,1001.66
2023-04-25T02:40:03.134Z,1001.70
2023-04-25T02:41:02.965Z,1001.72
2023-04-25T02:42:02.470Z,1001.73
2023-04-25T02:43:01.937Z,1001.73
2023-04-25T02:44:01.857Z,1001.73
2023-04-25T02:45:02.486Z,1001.72
2023-04-25T02:46:02.149Z,1001.72
2023-04-25T02:47:03.174Z,1001.71
2023-04-25T02:48:02.803Z,1001.70
2023-04-25T02:49:02.575Z,1001.70
2023-04-25T02:50:02.617Z,1001.67
2023-04-25T02:51:02.907Z,1001.68
2023-04-25T02:52:02.182Z,1001.67
2023-04-25T02:53:02.057Z,1001.66
2023-04-25T02:54:02.184Z,1001.72
2023-04-25T02:55:01.958Z,1001.68
2023-04-25T02:56:01.995Z,1001.69
2023-04-25T02:57:03.051Z,1001.70
2023-04-25T02:58:02.457Z,1001.70
2023-04-25T02:59:02.899Z,1001.68
2023-04-25T03:00:02.509Z,1001.65
2023-04-25T03:01:02.474Z,1001.64
2023-04-25T03:02:03.618Z,1001.63
2023-04-25T03:03:03.097Z,1001.65
2023-04-25T03:04:03.006Z,1001.65
2023-04-25T03:05:03.428Z,1001.68
2023-04-25T03:06:03.172Z,1001.66
2023-04-25T03:07:02.745Z,1001.64
2023-04-25T03:08:03.223Z,1001.63
2023-04-25T03:09:02.813Z,1001.64
2023-04-25T03:10:03.234Z,1001.65
2023-04-25T03:11:02.771Z,1001.69
2023-04-25T03:12:03.030Z,1001.65
2023-04-25T03:13:03.370Z,1001.67
2023-04-25T03:14:02.860Z,1001.66
2023-04-25T03:15:03.286Z,1001.67
2023-04-25T03:16:03.071Z,1001.64
2023-04-25T03:17:02.586Z,1001.64
2023-04-25T03:18:02.396Z,1001.68
2023-04-25T03:19:02.850Z,1001.62
2023-04-25T03:20:02.664Z,1001.63
2023-04-25T03:21:02.459Z,1001.62
2023-04-25T03:22:02.830Z,1001.66
2023-04-25T03:23:02.895Z,1001.67
2023-04-25T03:24:03.328Z,1001.67
2023-04-25T03:25:03.067Z,1001.71
2023-04-25T03:26:03.325Z,1001.68
2023-04-25T03:27:02.508Z,1001.72
2023-04-25T03:28:02.955Z,1001.71
2023-04-25T03:29:02.856Z,1001.72
2023-04-25T03:30:02.686Z,1001.68
2023-04-25T03:31:02.454Z,1001.70
2023-04-25T03:32:03.017Z,1001.67
2023-04-25T03:33:02.836Z,1001.68
2023-04-25T03:34:03.391Z,1001.67
2023-04-25T03:35:03.345Z,1001.66
2023-04-25T03:36:03.221Z,1001.65
2023-04-25T03:37:03.257Z,1001.63
2023-04-25T03:38:03.117Z,1001.68
2023-04-25T03:39:03.428Z,1001.64
2023-04-25T03:40:03.158Z,1001.65
2023-04-25T03:41:03.391Z,1001.66
2023-04-25T03:42:03.615Z,1001.65
2023-04-25T03:43:03.504Z,1001.67
2023-04-25T03:44:03.381Z,1001.67
2023-04-25T03:45:03.083Z,1001.65
2023-04-25T03:46:03.177Z,1001.70
2023-04-25T03:47:03.184Z,1001.68
2023-04-25T03:48:02.620Z,1001.72
2023-04-25T03:49:02.524Z,1001.72
2023-04-25T03:50:02.956Z,1001.74
2023-04-25T03:51:02.665Z,1001.73
2023-04-25T03:52:03.088Z,1001.76
2023-04-25T03:53:03.031Z,1001.74
2023-04-25T03:54:03.375Z,1001.77
2023-04-25T03:55:03.054Z,1001.79
2023-04-25T03:56:03.062Z,1001.75
2023-04-25T03:57:03.098Z,1001.73
2023-04-25T03:58:03.057Z,1001.75
2023-04-25T03:59:03.035Z,1001.79
2023-04-25T04:00:02.760Z,1001.77
2023-04-25T04:01:02.436Z,1001.81
2023-04-25T04:02:02.394Z,1001.81
2023-04-25T04:03:02.093Z,1001.80
2023-04-25T04:04:02.373Z,1001.79
2023-04-25T04:05:02.285Z,1001.83
2023-04-25T04:06:02.461Z,1001.84
2023-04-25T04:07:02.324Z,1001.84
2023-04-25T04:08:02.305Z,1001.83
2023-04-25T04:09:02.073Z,1001.86
2023-04-25T04:10:02.354Z,1001.88
2023-04-25T04:11:02.206Z,1001.90
2023-04-25T04:12:01.961Z,1001.90
2023-04-25T04:13:01.806Z,1001.89
2023-04-25T04:14:01.653Z,1001.90
2023-04-25T04:15:01.479Z,1001.87
2023-04-25T04:16:01.883Z,1001.91
2023-04-25T04:17:01.708Z,1001.89
2023-04-25T04:18:01.633Z,1001.89
2023-04-25T04:19:02.173Z,1001.91
2023-04-25T04:20:01.760Z,1001.94
2023-04-25T04:21:01.627Z,1001.91
2023-04-25T04:22:02.154Z,1001.91
2023-04-25T04:23:01.980Z,1001.89
2023-04-25T04:24:01.906Z,1001.86
2023-04-25T04:25:01.891Z,1001.86
2023-04-25T04:26:02.211Z,1001.87
2023-04-25T04:27:02.160Z,1001.89
2023-04-25T04:28:02.811Z,1001.90
2023-04-25T04:29:02.410Z,1001.92
2023-04-25T04:30:02.301Z,1001.95
2023-04-25T04:31:02.263Z,1001.96
2023-04-25T04:32:01.452Z,1001.94
2023-04-25T04:33:01.704Z,1001.93
2023-04-25T04:34:01.896Z,1001.94
2023-04-25T04:35:01.494Z,1001.95
2023-04-25T04:36:01.641Z,1001.96
2023-04-25T04:37:01.921Z,1001.97
2023-04-25T04:38:02.096Z,1002.01
2023-04-25T04:39:01.649Z,1002.03
2023-04-25T04:40:01.585Z,1002.02
2023-04-25T04:41:01.678Z,1002.04
2023-04-25T04:42:01.884Z,1002.06
2023-04-25T04:43:02.258Z,1002.10
2023-04-25T04:44:02.187Z,1002.10
2023-04-25T04:45:02.323Z,1002.12
2023-04-25T04:46:02.032Z,1002.11
2023-04-25T04:47:02.440Z,1002.13
2023-04-25T04:48:02.499Z,1002.19
2023-04-25T04:49:01.992Z,1002.15
2023-04-25T04:50:02.064Z,1002.14
2023-04-25T04:51:02.420Z,1002.14
2023-04-25T04:52:02.045Z,1002.15
2023-04-25T04:53:01.882Z,1002.15
2023-04-25T04:54:01.824Z,1002.15
2023-04-25T04:55:01.490Z,1002.14
2023-04-25T04:56:02.096Z,1002.17
2023-04-25T04:57:02.150Z,1002.22
2023-04-25T04:58:02.075Z,1002.21
2023-04-25T04:59:02.395Z,1002.26
2023-04-25T05:00:02.038Z,1002.23
2023-04-25T05:01:02.458Z,1002.28
2023-04-25T05:02:02.261Z,1002.30
2023-04-25T05:03:02.558Z,1002.30
2023-04-25T05:04:02.603Z,1002.28
2023-04-25T05:05:02.672Z,1002.30
2023-04-25T05:06:02.863Z,1002.31
2023-04-25T05:07:03.243Z,1002.33
2023-04-25T05:08:03.061Z,1002.33
2023-04-25T05:09:02.817Z,1002.34
2023-04-25T05:10:03.089Z,1002.33
2023-04-25T05:11:03.227Z,1002.35
2023-04-25T05:12:03.493Z,1002.34
2023-04-25T05:13:03.169Z,1002.36
2023-04-25T05:14:03.430Z,1002.36
2023-04-25T05:15:03.144Z,1002.38
2023-04-25T05:16:03.753Z,1002.39
2023-04-25T05:17:03.699Z,1002.39
2023-04-25T05:18:03.335Z,1002.43
2023-04-25T05:19:03.695Z,1002.44
2023-04-25T05:20:03.636Z,1002.47
2023-04-25T05:21:03.429Z,1002.45
2023-04-25T05:22:03.241Z,1002.47
2023-04-25T05:23:03.178Z,1002.48
2023-04-25T05:24:02.994Z,1002.51
2023-04-25T05:25:02.777Z,1002.49
2023-04-25T05:26:02.936Z,1002.52
2023-04-25T05:27:03.452Z,1002.53
2023-04-25T05:28:03.009Z,1002.52
2023-04-25T05:29:03.196Z,1002.52
2023-04-25T05:30:03.131Z,1002.56
2023-04-25T05:31:03.300Z,1002.56
2023-04-25T05:32:03.350Z,1002.60
2023-04-25T05:33:03.182Z,1002.60
2023-04-25T05:34:03.544Z,1002.58
2023-04-25T05:35:03.588Z,1002.59
2023-04-25T05:36:03.382Z,1002.61
2023-04-25T05:37:02.317Z,1002.59
2023-04-25T05:38:02.707Z,1002.57
2023-04-25T05:39:02.122Z,1002.57
2023-04-25T05:40:02.503Z,1002.54
2023-04-25T05:41:02.745Z,1002.62
2023-04-25T05:42:03.068Z,1002.58
2023-04-25T05:43:02.930Z,1002.61
2023-04-25T05:44:02.840Z,1002.61
2023-04-25T05:45:02.944Z,1002.62
2023-04-25T05:46:03.026Z,1002.62
2023-04-25T05:47:02.899Z,1002.64
2023-04-25T05:48:03.249Z,1002.63
2023-04-25T05:49:03.255Z,1002.61
2023-04-25T05:50:02.930Z,1002.64
2023-04-25T05:51:03.021Z,1002.66
2023-04-25T05:52:02.392Z,1002.70
2023-04-25T05:53:02.629Z,1002.70
2023-04-25T05:54:02.781Z,1002.71
2023-04-25T05:55:02.603Z,1002.69
2023-04-25T05:56:02.438Z,1002.67
2023-04-25T05:57:03.162Z,1002.75
2023-04-25T05:58:03.318Z,1002.76
2023-04-25T05:59:02.905Z,1002.73
2023-04-25T06:00:03.026Z,1002.75
2023-04-25T06:01:02.978Z,1002.77
2023-04-25T06:02:02.147Z,1002.77
2023-04-25T06:03:02.702Z,1002.77
2023-04-25T06:04:02.882Z,1002.79
2023-04-25T06:05:02.554Z,1002.79
2023-04-25T06:06:02.337Z,1002.83
2023-04-25T06:07:02.217Z,1002.81
2023-04-25T06:08:02.436Z,1002.82
2023-04-25T06:09:02.130Z,1002.80
2023-04-25T06:10:02.141Z,1002.81
2023-04-25T06:11:02.537Z,1002.83
2023-04-25T06:12:02.909Z,1002.88
2023-04-25T06:13:02.912Z,1002.86
2023-04-25T06:14:02.990Z,1002.83
2023-04-25T06:15:06.283Z,1002.85
2023-04-25T06:16:03.202Z,1002.89
2023-04-25T06:17:02.560Z,1002.89
2023-04-25T06:18:02.490Z,1002.92
2023-04-25T06:19:02.605Z,1002.88
2023-04-25T06:20:04.566Z,1002.94
2023-04-25T06:21:02.280Z,1002.95
2023-04-25T06:22:02.699Z,1002.91
2023-04-25T06:23:02.881Z,1002.87
2023-04-25T06:24:02.886Z,1002.86
2023-04-25T06:25:02.869Z,1002.89
2023-04-25T06:26:02.806Z,1002.90
2023-04-25T06:27:02.337Z,1002.89
2023-04-25T06:28:02.633Z,1002.92
2023-04-25T06:29:02.180Z,1002.93
2023-04-25T06:30:02.686Z,1002.94
2023-04-25T06:31:02.655Z,1002.96
2023-04-25T06:32:02.281Z,1002.99
2023-04-25T06:33:02.169Z,1002.93
2023-04-25T06:34:02.479Z,1002.99
2023-04-25T06:35:02.204Z,1002.95
2023-04-25T06:36:02.355Z,1003.03
2023-04-25T06:37:02.957Z,1002.98
2023-04-25T06:38:02.863Z,1003.06
2023-04-25T06:39:02.570Z,1003.03
2023-04-25T06:40:02.765Z,1003.04
2023-04-25T06:41:02.647Z,1003.04
2023-04-25T06:42:02.273Z,1003.01
2023-04-25T06:43:02.569Z,1003.01
2023-04-25T06:44:02.521Z,1003.02
2023-04-25T06:45:02.509Z,1003.03
2023-04-25T06:46:02.007Z,1003.02
2023-04-25T06:47:02.633Z,1003.01
2023-04-25T06:48:02.418Z,1003.02
2023-04-25T06:49:02.173Z,1003.00
2023-04-25T06:50:02.467Z,1003.00
2023-04-25T06:51:02.349Z,1003.02
2023-04-25T06:52:02.854Z,1003.02
2023-04-25T06:53:02.587Z,1003.03
2023-04-25T06:54:02.390Z,1003.00
2023-04-25T06:55:02.732Z,1003.04
2023-04-25T06:56:02.736Z,1003.06
2023-04-25T06:57:02.280Z,1003.04
2023-04-25T06:58:02.108Z,1003.03
2023-04-25T06:59:01.800Z,1003.06
2023-04-25T07:00:02.457Z,1003.06
2023-04-25T07:01:02.398Z,1003.07
2023-04-25T07:02:02.526Z,1003.09
2023-04-25T07:03:02.929Z,1003.05
2023-04-25T07:04:03.073Z,1003.06
2023-04-25T07:05:02.221Z,1003.07
2023-04-25T07:06:02.852Z,1003.09
2023-04-25T07:07:02.133Z,1003.11
2023-04-25T07:08:02.309Z,1003.14
2023-04-25T07:09:01.755Z,1003.15
2023-04-25T07:10:02.495Z,1003.15
2023-04-25T07:11:02.176Z,1003.12
2023-04-25T07:12:02.553Z,1003.13
2023-04-25T07:13:02.658Z,1003.17
2023-04-25T07:14:02.188Z,1003.17
2023-04-25T07:15:02.316Z,1003.20
2023-04-25T07:16:02.430Z,1003.21
2023-04-25T07:17:02.259Z,1003.24
2023-04-25T07:18:02.526Z,1003.23
2023-04-25T07:19:02.215Z,1003.24
2023-04-25T07:20:02.620Z,1003.25
2023-04-25T07:21:02.346Z,1003.25
2023-04-25T07:22:02.952Z,1003.28
2023-04-25T07:23:02.566Z,1003.26
2023-04-25T07:24:02.451Z,1003.28
2023-04-25T07:25:02.334Z,1003.27
2023-04-25T07:26:02.752Z,1003.26
2023-04-25T07:27:02.779Z,1003.21
2023-04-25T07:28:02.414Z,1003.23
2023-04-25T07:29:02.562Z,1003.20
2023-04-25T07:30:02.706Z,1003.24
2023-04-25T07:31:02.640Z,1003.21
2023-04-25T07:32:01.932Z,1003.22
2023-04-25T07:33:02.112Z,1003.20
2023-04-25T07:34:02.283Z,1003.24
2023-04-25T07:35:01.956Z,1003.26
2023-04-25T07:36:01.923Z,1003.23
2023-04-25T07:37:01.984Z,1003.20
2023-04-25T07:38:02.324Z,1003.24
2023-04-25T07:39:02.177Z,1003.25
2023-04-25T07:40:02.212Z,1003.28
2023-04-25T07:41:02.264Z,1003.31
2023-04-25T07:42:02.929Z,1003.30
2023-04-25T07:43:02.347Z,1003.35
2023-04-25T07:44:02.941Z,1003.39
2023-04-25T07:45:02.819Z,1003.33
2023-04-25T07:46:02.367Z,1003.36
2023-04-25T07:47:04.320Z,1003.36
2023-04-25T07:48:01.723Z,1003.41
2023-04-25T07:49:02.012Z,1003.40
2023-04-25T07:50:01.809Z,1003.42
2023-04-25T07:51:02.119Z,1003.37
2023-04-25T07:52:02.148Z,1003.35
2023-04-25T07:53:02.315Z,1003.37
2023-04-25T07:54:01.848Z,1003.39
2023-04-25T07:56:01.821Z,1003.41
2023-04-25T07:57:02.635Z,1003.37
2023-04-25T07:58:02.282Z,1003.40
2023-04-25T07:59:02.679Z,1003.43
2023-04-25T08:00:02.259Z,1003.44
2023-04-25T08:01:02.633Z,1003.45
2023-04-25T08:02:02.678Z,1003.46
2023-04-25T08:03:02.655Z,1003.49
2023-04-25T08:04:02.712Z,1003.50
2023-04-25T08:05:02.716Z,1003.54
2023-04-25T08:06:04.852Z,1003.57
2023-04-25T08:07:03.297Z,1003.58
2023-04-25T08:08:02.901Z,1003.60
2023-04-25T08:09:03.052Z,1003.60
2023-04-25T08:10:03.434Z,1003.71
2023-04-25T08:11:02.870Z,1003.70
2023-04-25T08:12:02.405Z,1003.69
2023-04-25T08:13:02.613Z,1003.74
2023-04-25T08:14:02.667Z,1003.68
2023-04-25T08:15:02.953Z,1003.69
2023-04-25T08:16:02.596Z,1003.73
2023-04-25T08:17:03.081Z,1003.74
2023-04-25T08:18:03.339Z,1003.73
2023-04-25T08:19:03.356Z,1003.77
2023-04-25T08:20:03.430Z,1003.81
2023-04-25T08:21:02.914Z,1003.82
2023-04-25T08:22:02.927Z,1003.90
2023-04-25T08:23:02.786Z,1003.90
2023-04-25T08:24:02.829Z,1003.95
2023-04-25T08:25:02.837Z,1003.95
2023-04-25T08:26:02.540Z,1003.94
2023-04-25T08:27:02.853Z,1003.92
2023-04-25T08:28:02.925Z,1003.96
2023-04-25T08:29:02.933Z,1003.97
2023-04-25T08:30:02.886Z,1003.96
2023-04-25T08:31:03.277Z,1004.01
2023-04-25T08:32:02.914Z,1003.99
2023-04-25T08:33:02.325Z,1004.04
2023-04-25T08:34:02.514Z,1004.07
2023-04-25T08:35:02.791Z,1004.06
2023-04-25T08:36:02.762Z,1004.08
2023-04-25T08:37:02.610Z,1004.12
2023-04-25T08:38:02.985Z,1004.12
2023-04-25T08:39:02.929Z,1004.17
2023-04-25T08:40:02.755Z,1004.19
2023-04-25T08:41:02.745Z,1004.21
2023-04-25T08:42:01.989Z,1004.18
2023-04-25T08:43:02.124Z,1004.25
2023-04-25T08:44:02.115Z,1004.23
2023-04-25T08:45:03.606Z,1004.23
2023-04-25T08:46:02.471Z,1004.27
2023-04-25T08:47:02.224Z,1004.24
2023-04-25T08:48:02.171Z,1004.28
2023-04-25T08:49:02.713Z,1004.29
2023-04-25T08:50:02.156Z,1004.32
2023-04-25T08:51:02.688Z,1004.32
2023-04-25T08:52:02.374Z,1004.29
2023-04-25T08:53:02.516Z,1004.31
2023-04-25T08:54:09.462Z,1004.33
2023-04-25T08:55:02.626Z,1004.37
2023-04-25T08:56:02.258Z,1004.39
2023-04-25T08:57:02.427Z,1004.36
2023-04-25T08:58:02.765Z,1004.38
2023-04-25T08:59:02.874Z,1004.42
2023-04-25T09:00:02.887Z,1004.39
2023-04-25T09:01:02.447Z,1004.39
2023-04-25T09:02:02.440Z,1004.40
2023-04-25T09:03:02.586Z,1004.37
2023-04-25T09:04:02.313Z,1004.42
2023-04-25T09:05:02.051Z,1004.42
2023-04-25T09:06:02.545Z,1004.46
2023-04-25T09:07:02.383Z,1004.54
2023-04-25T09:08:02.752Z,1004.49
2023-04-25T09:09:02.948Z,1004.50
2023-04-25T09:10:02.849Z,1004.51
2023-04-25T09:11:02.720Z,1004.56
2023-04-25T09:12:02.000Z,1004.55
2023-04-25T09:13:02.146Z,1004.57
2023-04-25T09:14:02.615Z,1004.58
2023-04-25T09:15:02.155Z,1004.61
2023-04-25T09:16:02.152Z,1004.58
2023-04-25T09:17:02.687Z,1004.59
2023-04-25T09:18:02.468Z,1004.61
2023-04-25T09:19:02.514Z,1004.63
2023-04-25T09:20:02.343Z,1004.62
2023-04-25T09:21:07.521Z,1004.66
2023-04-25T09:22:02.401Z,1004.68
2023-04-25T09:23:02.711Z,1004.67
2023-04-25T09:24:02.645Z,1004.73
2023-04-25T09:25:02.460Z,1004.72
2023-04-25T09:26:02.874Z,1004.71
2023-04-25T09:27:02.092Z,1004.73
2023-04-25T09:28:02.070Z,1004.73
2023-04-25T09:29:02.544Z,1004.72
2023-04-25T09:30:02.146Z,1004.75
2023-04-25T09:31:01.998Z,1004.73
2023-04-25T09:32:02.219Z,1004.76
2023-04-25T09:33:02.670Z,1004.78
2023-04-25T09:34:02.650Z,1004.80
2023-04-25T09:35:02.353Z,1004.81
2023-04-25T09:36:02.341Z,1004.86
2023-04-25T09:37:02.732Z,1004.83
2023-04-25T09:38:02.677Z,1004.86
2023-04-25T09:39:02.532Z,1004.86
2023-04-25T09:40:02.797Z,1004.90
2023-04-25T09:41:02.756Z,1004.90
2023-04-25T09:42:02.403Z,1004.96
2023-04-25T09:43:02.248Z,1004.95
2023-04-25T09:44:03.555Z,1004.97
2023-04-25T09:45:02.752Z,1004.99
2023-04-25T09:46:02.423Z,1005.01
2023-04-25T09:47:02.193Z,1005.01
2023-04-25T09:48:02.226Z,1005.00
2023-04-25T09:49:01.885Z,1005.01
2023-04-25T09:50:01.991Z,1005.06
2023-04-25T09:51:01.848Z,1005.06
2023-04-25T09:52:02.631Z,1005.03
2023-04-25T09:53:02.242Z,1005.06
2023-04-25T09:54:02.453Z,1005.05
2023-04-25T09:55:02.652Z,1005.04
2023-04-25T09:56:02.811Z,1005.08
2023-04-25T09:57:02.675Z,1005.04
2023-04-25T09:58:02.448Z,1005.07
2023-04-25T09:59:02.466Z,1005.10
2023-04-25T10:00:02.874Z,1005.08
2023-04-25T10:01:02.487Z,1005.08
2023-04-25T10:02:02.191Z,1005.13
2023-04-25T10:03:02.035Z,1005.15
2023-04-25T10:04:02.710Z,1005.17
2023-04-25T10:05:02.449Z,1005.13
2023-04-25T10:06:02.153Z,1005.09
2023-04-25T10:07:02.527Z,1005.12
2023-04-25T10:08:02.815Z,1005.19
2023-04-25T10:09:02.436Z,1005.15
2023-04-25T10:10:02.815Z,1005.15
2023-04-25T10:11:02.455Z,1005.17
2023-04-25T10:12:02.189Z,1005.18
2023-04-25T10:13:02.188Z,1005.13
2023-04-25T10:14:01.892Z,1005.17
2023-04-25T10:15:02.128Z,1005.19
2023-04-25T10:16:02.152Z,1005.19
2023-04-25T10:17:02.356Z,1005.18
2023-04-25T10:18:02.821Z,1005.21
2023-04-25T10:19:02.697Z,1005.23
2023-04-25T10:20:02.871Z,1005.27
2023-04-25T10:21:02.388Z,1005.27
2023-04-25T10:22:02.901Z,1005.28
2023-04-25T10:23:02.902Z,1005.26
2023-04-25T10:24:02.774Z,1005.28
2023-04-25T10:25:02.705Z,1005.30
2023-04-25T10:26:02.878Z,1005.33
2023-04-25T10:27:02.519Z,1005.34
2023-04-25T10:28:02.479Z,1005.33
2023-04-25T10:29:02.163Z,1005.34
2023-04-25T10:30:02.092Z,1005.31
2023-04-25T10:31:02.259Z,1005.33
2023-04-25T10:32:02.974Z,1005.36
2023-04-25T10:33:02.862Z,1005.36
2023-04-25T10:34:02.597Z,1005.36
2023-04-25T10:35:02.620Z,1005.41
2023-04-25T10:36:02.864Z,1005.37
2023-04-25T10:37:02.901Z,1005.42
2023-04-25T10:38:02.856Z,1005.38
2023-04-25T10:39:02.985Z,1005.45
2023-04-25T10:40:02.802Z,1005.47
2023-04-25T10:41:03.109Z,1005.38
2023-04-25T10:42:02.193Z,1005.39
2023-04-25T10:43:01.780Z,1005.35
2023-04-25T10:44:02.183Z,1005.36
2023-04-25T10:45:01.721Z,1005.41
2023-04-25T10:46:01.984Z,1005.38
2023-04-25T10:47:02.475Z,1005.38
2023-04-25T10:48:02.350Z,1005.42
2023-04-25T10:49:02.457Z,1005.43
2023-04-25T10:50:02.186Z,1005.41
2023-04-25T10:51:01.987Z,1005.45
2023-04-25T10:52:02.185Z,1005.45
2023-04-25T10:53:02.249Z,1005.48
2023-04-25T10:54:02.601Z,1005.46
2023-04-25T10:55:02.261Z,1005.50
2023-04-25T10:56:02.324Z,1005.46
2023-04-25T10:57:02.850Z,1005.52
2023-04-25T10:58:02.547Z,1005.57
2023-04-25T10:59:02.413Z,1005.52
2023-04-25T11:00:02.600Z,1005.47
2023-04-25T11:01:02.541Z,1005.58
2023-04-25T11:02:03.365Z,1005.61
2023-04-25T11:03:03.118Z,1005.60
2023-04-25T11:04:03.409Z,1005.57
2023-04-25T11:05:03.290Z,1005.59
2023-04-25T11:06:03.104Z,1005.61
2023-04-25T11:07:07.187Z,1005.56
2023-04-25T11:08:08.244Z,1005.54
2023-04-25T11:09:03.795Z,1005.55
2023-04-25T11:10:03.451Z,1005.55
2023-04-25T11:11:03.877Z,1005.55
2023-04-25T11:12:03.267Z,1005.56
2023-04-25T11:13:03.260Z,1005.54
2023-04-25T11:14:03.347Z,1005.57
2023-04-25T11:15:03.501Z,1005.59
2023-04-25T11:16:12.377Z,1005.55
2023-04-25T11:17:02.885Z,1005.58
2023-04-25T11:18:02.903Z,1005.54
2023-04-25T11:19:03.410Z,1005.56
2023-04-25T11:20:03.208Z,1005.50
2023-04-25T11:21:02.832Z,1005.45
2023-04-25T11:22:02.975Z,1005.45
2023-04-25T11:24:02.911Z,1005.47
2023-04-25T11:25:02.543Z,1005.45
2023-04-25T11:26:02.444Z,1005.42
2023-04-25T11:27:03.436Z,1005.44
2023-04-25T11:28:03.397Z,1005.44
2023-04-25T11:29:02.880Z,1005.42
2023-04-25T11:30:03.426Z,1005.43
2023-04-25T11:31:02.940Z,1005.42
2023-04-25T11:32:03.827Z,1005.43
2023-04-25T11:33:03.809Z,1005.46
2023-04-25T11:34:03.239Z,1005.47
2023-04-25T11:35:03.582Z,1005.48
2023-04-25T11:36:03.606Z,1005.47
2023-04-25T11:37:02.332Z,1005.44
2023-04-25T11:38:03.020Z,1005.43
2023-04-25T11:39:02.408Z,1005.45
2023-04-25T11:40:02.464Z,1005.45
2023-04-25T11:41:02.688Z,1005.41
2023-04-25T11:42:03.270Z,1005.44
2023-04-25T11:43:03.155Z,1005.41
2023-04-25T11:44:02.891Z,1005.43
2023-04-25T11:45:02.844Z,1005.40
2023-04-25T11:46:02.928Z,1005.41
2023-04-25T11:47:03.219Z,1005.43
2023-04-25T11:48:03.900Z,1005.43
2023-04-25T11:49:03.332Z,1005.45
2023-04-25T11:50:03.298Z,1005.52
2023-04-25T11:51:03.671Z,1005.49
2023-04-25T11:52:03.932Z,1005.50
2023-04-25T11:53:03.210Z,1005.48
2023-04-25T11:54:02.945Z,1005.51
2023-04-25T11:55:03.183Z,1005.59
2023-04-25T11:56:03.111Z,1005.58
2023-04-25T11:57:03.414Z,1005.61
2023-04-25T11:58:02.790Z,1005.56
2023-04-25T11:59:02.980Z,1005.58
2023-04-25T12:00:02.934Z,1005.57
2023-04-25T12:01:02.897Z,1005.54
2023-04-25T12:02:02.766Z,1005.54
2023-04-25T12:03:02.814Z,1005.55
2023-04-25T12:04:03.017Z,1005.59
2023-04-25T12:05:15.874Z,1005.58
2023-04-25T12:06:02.616Z,1005.60
2023-04-25T12:07:02.571Z,1005.63